sensor_id;sensor_type;location;lat;lon;timestamp;P1;durP1;ratioP1;P2;durP2;ratioP2
42036;SDS011;30340;52.004;5.908;2023-09-07T00:01:56;4.22;;;2.60;;
42036;SDS011;30340;52.004;5.908;2023-09-07T00:04:22;2.60;;;2.30;;
42036;SDS011;30340;52.004;5.908;2023-09-07T00:06:51;5.07;;;2.80;;
42036;SDS011;30340;52.004;5.908;2023-09-07T00:09:16;3.20;;;2.90;;
42036;SDS011;30340;52.004;5.908;2023-09-07T00:11:44;3.40;;;2.70;;
42036;SDS011;30340;52.004;5.908;2023-09-07T00:14:10;4.07;;;2.53;;
42036;SDS011;30340;52.004;5.908;2023-09-07T00:16:36;3.00;;;2.38;;
42036;SDS011;30340;52.004;5.908;2023-09-07T00:19:03;2.88;;;2.47;;
42036;SDS011;30340;52.004;5.908;2023-09-07T00:21:29;4.13;;;2.55;;
42036;SDS011;30340;52.004;5.908;2023-09-07T00:23:55;4.18;;;2.60;;
42036;SDS011;30340;52.004;5.908;2023-09-07T00:26:21;3.38;;;2.60;;
42036;SDS011;30340;52.004;5.908;2023-09-07T00:28:46;4.20;;;2.80;;
42036;SDS011;30340;52.004;5.908;2023-09-07T00:31:12;5.53;;;2.70;;
42036;SDS011;30340;52.004;5.908;2023-09-07T00:33:38;3.28;;;2.53;;
42036;SDS011;30340;52.004;5.908;2023-09-07T00:36:03;3.42;;;2.45;;
42036;SDS011;30340;52.004;5.908;2023-09-07T00:38:30;4.45;;;2.70;;
42036;SDS011;30340;52.004;5.908;2023-09-07T00:40:55;3.92;;;2.60;;
42036;SDS011;30340;52.004;5.908;2023-09-07T00:43:21;5.03;;;2.65;;
42036;SDS011;30340;52.004;5.908;2023-09-07T00:45:47;3.53;;;2.80;;
42036;SDS011;30340;52.004;5.908;2023-09-07T00:48:13;5.90;;;2.65;;
42036;SDS011;30340;52.004;5.908;2023-09-07T00:50:41;4.00;;;2.50;;
42036;SDS011;30340;52.004;5.908;2023-09-07T00:53:08;7.38;;;3.20;;
42036;SDS011;30340;52.004;5.908;2023-09-07T00:55:35;3.80;;;2.95;;
42036;SDS011;30340;52.004;5.908;2023-09-07T00:58:02;3.08;;;2.50;;
42036;SDS011;30340;52.004;5.908;2023-09-07T01:00:29;2.55;;;2.35;;
42036;SDS011;30340;52.004;5.908;2023-09-07T01:02:56;4.28;;;3.00;;
42036;SDS011;30340;52.004;5.908;2023-09-07T01:05:23;5.35;;;2.60;;
42036;SDS011;30340;52.004;5.908;2023-09-07T01:07:57;3.42;;;2.80;;
42036;SDS011;30340;52.004;5.908;2023-09-07T01:10:25;3.92;;;2.90;;
42036;SDS011;30340;52.004;5.908;2023-09-07T01:12:51;4.38;;;2.90;;
42036;SDS011;30340;52.004;5.908;2023-09-07T01:15:17;4.38;;;2.97;;
42036;SDS011;30340;52.004;5.908;2023-09-07T01:17:42;4.97;;;3.60;;
42036;SDS011;30340;52.004;5.908;2023-09-07T01:20:09;5.28;;;3.88;;
42036;SDS011;30340;52.004;5.908;2023-09-07T01:22:38;5.78;;;4.10;;
42036;SDS011;30340;52.004;5.908;2023-09-07T01:25:04;4.18;;;3.38;;
42036;SDS011;30340;52.004;5.908;2023-09-07T01:27:32;5.60;;;3.35;;
42036;SDS011;30340;52.004;5.908;2023-09-07T01:29:58;4.90;;;3.70;;
42036;SDS011;30340;52.004;5.908;2023-09-07T01:32:24;6.10;;;3.35;;
42036;SDS011;30340;52.004;5.908;2023-09-07T01:34:52;4.50;;;3.20;;
42036;SDS011;30340;52.004;5.908;2023-09-07T01:37:21;4.43;;;3.20;;
42036;SDS011;30340;52.004;5.908;2023-09-07T01:39:46;4.68;;;3.53;;
42036;SDS011;30340;52.004;5.908;2023-09-07T01:42:13;5.32;;;3.30;;
42036;SDS011;30340;52.004;5.908;2023-09-07T01:44:39;4.05;;;3.40;;
42036;SDS011;30340;52.004;5.908;2023-09-07T01:47:04;4.18;;;3.22;;
42036;SDS011;30340;52.004;5.908;2023-09-07T01:49:30;4.50;;;3.30;;
42036;SDS011;30340;52.004;5.908;2023-09-07T01:51:55;4.00;;;3.50;;
42036;SDS011;30340;52.004;5.908;2023-09-07T01:54:21;4.03;;;3.00;;
42036;SDS011;30340;52.004;5.908;2023-09-07T01:56:47;4.32;;;3.13;;
42036;SDS011;30340;52.004;5.908;2023-09-07T01:59:12;4.68;;;3.53;;
42036;SDS011;30340;52.004;5.908;2023-09-07T02:01:38;3.85;;;3.28;;
42036;SDS011;30340;52.004;5.908;2023-09-07T02:04:04;6.10;;;3.45;;
42036;SDS011;30340;52.004;5.908;2023-09-07T02:06:30;5.07;;;3.17;;
42036;SDS011;30340;52.004;5.908;2023-09-07T02:08:56;5.50;;;3.60;;
42036;SDS011;30340;52.004;5.908;2023-09-07T02:11:21;5.70;;;3.80;;
42036;SDS011;30340;52.004;5.908;2023-09-07T02:13:47;4.07;;;3.22;;
42036;SDS011;30340;52.004;5.908;2023-09-07T02:16:13;4.82;;;3.65;;
42036;SDS011;30340;52.004;5.908;2023-09-07T02:18:39;4.15;;;3.50;;
42036;SDS011;30340;52.004;5.908;2023-09-07T02:21:08;4.68;;;3.30;;
42036;SDS011;30340;52.004;5.908;2023-09-07T02:23:34;3.90;;;3.35;;
42036;SDS011;30340;52.004;5.908;2023-09-07T02:26:02;4.03;;;3.50;;
42036;SDS011;30340;52.004;5.908;2023-09-07T02:28:28;5.53;;;3.65;;
42036;SDS011;30340;52.004;5.908;2023-09-07T02:30:53;5.78;;;3.60;;
42036;SDS011;30340;52.004;5.908;2023-09-07T02:33:19;4.90;;;3.58;;
42036;SDS011;30340;52.004;5.908;2023-09-07T02:35:47;4.80;;;3.88;;
42036;SDS011;30340;52.004;5.908;2023-09-07T02:38:14;4.90;;;3.58;;
42036;SDS011;30340;52.004;5.908;2023-09-07T02:40:43;4.32;;;3.70;;
42036;SDS011;30340;52.004;5.908;2023-09-07T02:43:09;7.15;;;3.53;;
42036;SDS011;30340;52.004;5.908;2023-09-07T02:45:35;6.18;;;4.15;;
42036;SDS011;30340;52.004;5.908;2023-09-07T02:48:01;5.57;;;4.20;;
42036;SDS011;30340;52.004;5.908;2023-09-07T02:50:29;6.55;;;3.72;;
42036;SDS011;30340;52.004;5.908;2023-09-07T02:52:55;6.57;;;3.90;;
42036;SDS011;30340;52.004;5.908;2023-09-07T02:55:21;6.07;;;3.22;;
42036;SDS011;30340;52.004;5.908;2023-09-07T02:57:46;5.88;;;3.35;;
42036;SDS011;30340;52.004;5.908;2023-09-07T03:00:12;4.82;;;3.80;;
42036;SDS011;30340;52.004;5.908;2023-09-07T03:02:38;4.68;;;3.85;;
42036;SDS011;30340;52.004;5.908;2023-09-07T03:05:03;5.05;;;3.80;;
42036;SDS011;30340;52.004;5.908;2023-09-07T03:07:32;4.40;;;3.42;;
42036;SDS011;30340;52.004;5.908;2023-09-07T03:09:58;5.40;;;3.15;;
42036;SDS011;30340;52.004;5.908;2023-09-07T03:12:24;5.05;;;3.75;;
42036;SDS011;30340;52.004;5.908;2023-09-07T03:14:50;5.07;;;3.80;;
42036;SDS011;30340;52.004;5.908;2023-09-07T03:17:16;5.78;;;3.80;;
42036;SDS011;30340;52.004;5.908;2023-09-07T03:19:42;4.13;;;3.60;;
42036;SDS011;30340;52.004;5.908;2023-09-07T03:22:08;4.45;;;3.80;;
42036;SDS011;30340;52.004;5.908;2023-09-07T03:24:34;4.72;;;3.70;;
42036;SDS011;30340;52.004;5.908;2023-09-07T03:26:59;5.22;;;3.67;;
42036;SDS011;30340;52.004;5.908;2023-09-07T03:29:25;4.03;;;3.30;;
42036;SDS011;30340;52.004;5.908;2023-09-07T03:31:50;5.90;;;4.15;;
42036;SDS011;30340;52.004;5.908;2023-09-07T03:34:16;5.32;;;3.78;;
42036;SDS011;30340;52.004;5.908;2023-09-07T03:36:42;6.85;;;5.05;;
42036;SDS011;30340;52.004;5.908;2023-09-07T03:39:07;4.72;;;3.72;;
42036;SDS011;30340;52.004;5.908;2023-09-07T03:41:33;4.07;;;3.60;;
42036;SDS011;30340;52.004;5.908;2023-09-07T03:43:59;4.55;;;3.40;;
42036;SDS011;30340;52.004;5.908;2023-09-07T03:46:26;4.45;;;3.72;;
42036;SDS011;30340;52.004;5.908;2023-09-07T03:48:51;4.15;;;3.65;;
42036;SDS011;30340;52.004;5.908;2023-09-07T03:51:17;5.47;;;3.88;;
42036;SDS011;30340;52.004;5.908;2023-09-07T03:53:43;4.20;;;3.72;;
42036;SDS011;30340;52.004;5.908;2023-09-07T03:56:08;4.50;;;3.90;;
42036;SDS011;30340;52.004;5.908;2023-09-07T03:58:34;3.95;;;3.55;;
42036;SDS011;30340;52.004;5.908;2023-09-07T04:01:00;4.50;;;3.45;;
42036;SDS011;30340;52.004;5.908;2023-09-07T04:03:25;5.03;;;3.60;;
42036;SDS011;30340;52.004;5.908;2023-09-07T04:05:51;4.28;;;3.25;;
42036;SDS011;30340;52.004;5.908;2023-09-07T04:08:16;4.45;;;3.70;;
42036;SDS011;30340;52.004;5.908;2023-09-07T04:10:42;6.00;;;4.03;;
42036;SDS011;30340;52.004;5.908;2023-09-07T04:13:08;4.72;;;3.90;;
42036;SDS011;30340;52.004;5.908;2023-09-07T04:15:34;3.90;;;3.05;;
42036;SDS011;30340;52.004;5.908;2023-09-07T04:18:06;5.18;;;3.72;;
42036;SDS011;30340;52.004;5.908;2023-09-07T04:20:31;4.72;;;3.42;;
42036;SDS011;30340;52.004;5.908;2023-09-07T04:22:57;4.22;;;3.67;;
42036;SDS011;30340;52.004;5.908;2023-09-07T04:25:22;4.78;;;3.50;;
42036;SDS011;30340;52.004;5.908;2023-09-07T04:27:48;5.00;;;4.20;;
42036;SDS011;30340;52.004;5.908;2023-09-07T04:30:14;5.07;;;3.75;;
42036;SDS011;30340;52.004;5.908;2023-09-07T04:32:39;5.05;;;3.90;;
42036;SDS011;30340;52.004;5.908;2023-09-07T04:35:05;5.25;;;3.78;;
42036;SDS011;30340;52.004;5.908;2023-09-07T04:37:32;5.18;;;3.78;;
42036;SDS011;30340;52.004;5.908;2023-09-07T04:39:57;9.02;;;4.50;;
42036;SDS011;30340;52.004;5.908;2023-09-07T04:42:23;4.75;;;3.53;;
42036;SDS011;30340;52.004;5.908;2023-09-07T04:44:48;5.25;;;4.05;;
42036;SDS011;30340;52.004;5.908;2023-09-07T04:47:14;5.03;;;3.80;;
42036;SDS011;30340;52.004;5.908;2023-09-07T04:49:47;4.82;;;4.10;;
42036;SDS011;30340;52.004;5.908;2023-09-07T04:52:15;5.07;;;3.83;;
42036;SDS011;30340;52.004;5.908;2023-09-07T04:54:41;5.50;;;4.35;;
42036;SDS011;30340;52.004;5.908;2023-09-07T04:57:08;6.18;;;4.53;;
42036;SDS011;30340;52.004;5.908;2023-09-07T04:59:33;5.68;;;4.50;;
42036;SDS011;30340;52.004;5.908;2023-09-07T05:01:59;4.57;;;3.97;;
42036;SDS011;30340;52.004;5.908;2023-09-07T05:04:26;5.75;;;4.15;;
42036;SDS011;30340;52.004;5.908;2023-09-07T05:06:52;6.47;;;4.70;;
42036;SDS011;30340;52.004;5.908;2023-09-07T05:09:18;4.57;;;4.15;;
42036;SDS011;30340;52.004;5.908;2023-09-07T05:11:45;5.05;;;4.20;;
42036;SDS011;30340;52.004;5.908;2023-09-07T05:14:10;6.65;;;4.85;;
42036;SDS011;30340;52.004;5.908;2023-09-07T05:16:36;5.57;;;4.32;;
42036;SDS011;30340;52.004;5.908;2023-09-07T05:19:02;5.13;;;4.05;;
42036;SDS011;30340;52.004;5.908;2023-09-07T05:21:28;5.57;;;4.30;;
42036;SDS011;30340;52.004;5.908;2023-09-07T05:23:54;4.90;;;3.83;;
42036;SDS011;30340;52.004;5.908;2023-09-07T05:26:22;5.63;;;4.38;;
42036;SDS011;30340;52.004;5.908;2023-09-07T05:28:49;5.95;;;4.00;;
42036;SDS011;30340;52.004;5.908;2023-09-07T05:31:15;5.10;;;4.20;;
42036;SDS011;30340;52.004;5.908;2023-09-07T05:33:40;5.90;;;4.30;;
42036;SDS011;30340;52.004;5.908;2023-09-07T05:36:06;7.40;;;4.47;;
42036;SDS011;30340;52.004;5.908;2023-09-07T05:38:31;5.97;;;4.75;;
42036;SDS011;30340;52.004;5.908;2023-09-07T05:40:57;6.28;;;4.57;;
42036;SDS011;30340;52.004;5.908;2023-09-07T05:43:23;4.30;;;3.90;;
42036;SDS011;30340;52.004;5.908;2023-09-07T05:45:53;5.68;;;4.30;;
42036;SDS011;30340;52.004;5.908;2023-09-07T05:48:18;4.90;;;4.13;;
42036;SDS011;30340;52.004;5.908;2023-09-07T05:50:44;5.60;;;4.55;;
42036;SDS011;30340;52.004;5.908;2023-09-07T05:53:10;6.15;;;4.10;;
42036;SDS011;30340;52.004;5.908;2023-09-07T05:55:36;5.10;;;3.90;;
42036;SDS011;30340;52.004;5.908;2023-09-07T05:58:05;5.70;;;4.10;;
42036;SDS011;30340;52.004;5.908;2023-09-07T06:00:32;4.93;;;3.67;;
42036;SDS011;30340;52.004;5.908;2023-09-07T06:02:59;5.38;;;3.60;;
42036;SDS011;30340;52.004;5.908;2023-09-07T06:05:25;4.30;;;3.35;;
42036;SDS011;30340;52.004;5.908;2023-09-07T06:07:51;3.70;;;3.30;;
42036;SDS011;30340;52.004;5.908;2023-09-07T06:10:17;4.80;;;4.13;;
42036;SDS011;30340;52.004;5.908;2023-09-07T06:12:44;4.75;;;3.92;;
42036;SDS011;30340;52.004;5.908;2023-09-07T06:15:10;5.25;;;3.30;;
42036;SDS011;30340;52.004;5.908;2023-09-07T06:17:35;6.32;;;3.95;;
42036;SDS011;30340;52.004;5.908;2023-09-07T06:20:01;5.70;;;3.30;;
42036;SDS011;30340;52.004;5.908;2023-09-07T06:22:27;4.47;;;3.20;;
42036;SDS011;30340;52.004;5.908;2023-09-07T06:24:53;4.45;;;3.35;;
42036;SDS011;30340;52.004;5.908;2023-09-07T06:27:19;4.68;;;3.58;;
42036;SDS011;30340;52.004;5.908;2023-09-07T06:29:44;5.38;;;3.10;;
42036;SDS011;30340;52.004;5.908;2023-09-07T06:32:10;3.78;;;3.30;;
42036;SDS011;30340;52.004;5.908;2023-09-07T06:34:36;3.95;;;3.10;;
42036;SDS011;30340;52.004;5.908;2023-09-07T06:37:01;4.68;;;2.88;;
42036;SDS011;30340;52.004;5.908;2023-09-07T06:39:27;3.63;;;2.70;;
42036;SDS011;30340;52.004;5.908;2023-09-07T06:41:53;5.45;;;3.53;;
42036;SDS011;30340;52.004;5.908;2023-09-07T06:44:19;5.00;;;3.50;;
42036;SDS011;30340;52.004;5.908;2023-09-07T06:46:46;3.20;;;2.90;;
42036;SDS011;30340;52.004;5.908;2023-09-07T06:49:13;5.25;;;3.38;;
42036;SDS011;30340;52.004;5.908;2023-09-07T06:51:39;4.70;;;2.70;;
42036;SDS011;30340;52.004;5.908;2023-09-07T06:54:05;3.85;;;3.20;;
42036;SDS011;30340;52.004;5.908;2023-09-07T06:56:31;4.00;;;3.03;;
42036;SDS011;30340;52.004;5.908;2023-09-07T06:58:58;3.75;;;3.17;;
42036;SDS011;30340;52.004;5.908;2023-09-07T07:01:24;3.95;;;2.72;;
42036;SDS011;30340;52.004;5.908;2023-09-07T07:03:49;4.38;;;2.50;;
42036;SDS011;30340;52.004;5.908;2023-09-07T07:06:15;5.22;;;3.00;;
42036;SDS011;30340;52.004;5.908;2023-09-07T07:08:40;5.00;;;3.10;;
42036;SDS011;30340;52.004;5.908;2023-09-07T07:11:06;4.80;;;2.70;;
42036;SDS011;30340;52.004;5.908;2023-09-07T07:13:32;4.93;;;2.90;;
42036;SDS011;30340;52.004;5.908;2023-09-07T07:15:58;2.50;;;2.30;;
42036;SDS011;30340;52.004;5.908;2023-09-07T07:18:24;3.33;;;3.00;;
42036;SDS011;30340;52.004;5.908;2023-09-07T07:20:49;3.33;;;2.75;;
42036;SDS011;30340;52.004;5.908;2023-09-07T07:23:16;2.90;;;2.60;;
42036;SDS011;30340;52.004;5.908;2023-09-07T07:25:42;4.10;;;2.80;;
42036;SDS011;30340;52.004;5.908;2023-09-07T07:28:07;3.90;;;3.10;;
42036;SDS011;30340;52.004;5.908;2023-09-07T07:30:34;3.15;;;2.50;;
42036;SDS011;30340;52.004;5.908;2023-09-07T07:33:01;3.80;;;2.40;;
42036;SDS011;30340;52.004;5.908;2023-09-07T07:35:31;2.97;;;2.50;;
42036;SDS011;30340;52.004;5.908;2023-09-07T07:37:57;3.88;;;2.67;;
42036;SDS011;30340;52.004;5.908;2023-09-07T07:40:23;3.90;;;3.03;;
42036;SDS011;30340;52.004;5.908;2023-09-07T07:42:50;3.80;;;2.95;;
42036;SDS011;30340;52.004;5.908;2023-09-07T07:45:17;3.78;;;2.80;;
42036;SDS011;30340;52.004;5.908;2023-09-07T07:47:45;2.83;;;2.20;;
42036;SDS011;30340;52.004;5.908;2023-09-07T07:50:11;3.45;;;3.00;;
42036;SDS011;30340;52.004;5.908;2023-09-07T07:52:36;3.92;;;3.17;;
42036;SDS011;30340;52.004;5.908;2023-09-07T07:55:02;2.75;;;2.50;;
42036;SDS011;30340;52.004;5.908;2023-09-07T07:57:28;5.32;;;3.15;;
42036;SDS011;30340;52.004;5.908;2023-09-07T07:59:53;2.90;;;2.38;;
42036;SDS011;30340;52.004;5.908;2023-09-07T08:02:20;3.58;;;2.78;;
42036;SDS011;30340;52.004;5.908;2023-09-07T08:04:46;3.00;;;2.70;;
42036;SDS011;30340;52.004;5.908;2023-09-07T08:07:11;4.97;;;2.60;;
42036;SDS011;30340;52.004;5.908;2023-09-07T08:09:37;4.97;;;2.78;;
42036;SDS011;30340;52.004;5.908;2023-09-07T08:12:03;4.80;;;3.05;;
42036;SDS011;30340;52.004;5.908;2023-09-07T08:14:30;3.67;;;2.97;;
42036;SDS011;30340;52.004;5.908;2023-09-07T08:16:56;3.33;;;2.70;;
42036;SDS011;30340;52.004;5.908;2023-09-07T08:19:22;4.13;;;3.00;;
42036;SDS011;30340;52.004;5.908;2023-09-07T08:21:48;4.75;;;3.42;;
42036;SDS011;30340;52.004;5.908;2023-09-07T08:24:14;3.95;;;2.95;;
42036;SDS011;30340;52.004;5.908;2023-09-07T08:26:39;3.50;;;2.85;;
42036;SDS011;30340;52.004;5.908;2023-09-07T08:29:05;4.15;;;3.10;;
42036;SDS011;30340;52.004;5.908;2023-09-07T08:31:32;3.50;;;2.83;;
42036;SDS011;30340;52.004;5.908;2023-09-07T08:34:00;3.30;;;2.80;;
42036;SDS011;30340;52.004;5.908;2023-09-07T08:36:27;4.10;;;3.00;;
42036;SDS011;30340;52.004;5.908;2023-09-07T08:38:54;4.93;;;3.38;;
42036;SDS011;30340;52.004;5.908;2023-09-07T08:41:20;4.35;;;3.20;;
42036;SDS011;30340;52.004;5.908;2023-09-07T08:43:47;4.75;;;3.22;;
42036;SDS011;30340;52.004;5.908;2023-09-07T08:46:15;5.50;;;3.60;;
42036;SDS011;30340;52.004;5.908;2023-09-07T08:48:47;3.95;;;3.50;;
42036;SDS011;30340;52.004;5.908;2023-09-07T08:51:16;4.80;;;3.80;;
42036;SDS011;30340;52.004;5.908;2023-09-07T08:53:43;5.75;;;4.45;;
42036;SDS011;30340;52.004;5.908;2023-09-07T08:56:11;4.43;;;3.70;;
42036;SDS011;30340;52.004;5.908;2023-09-07T08:58:38;4.93;;;3.25;;
42036;SDS011;30340;52.004;5.908;2023-09-07T09:01:05;4.72;;;3.45;;
42036;SDS011;30340;52.004;5.908;2023-09-07T09:03:31;5.70;;;4.00;;
42036;SDS011;30340;52.004;5.908;2023-09-07T09:05:57;3.90;;;3.45;;
42036;SDS011;30340;52.004;5.908;2023-09-07T09:08:22;6.28;;;3.85;;
42036;SDS011;30340;52.004;5.908;2023-09-07T09:10:57;4.25;;;3.50;;
42036;SDS011;30340;52.004;5.908;2023-09-07T09:13:29;3.60;;;2.83;;
42036;SDS011;30340;52.004;5.908;2023-09-07T09:15:55;4.72;;;4.10;;
42036;SDS011;30340;52.004;5.908;2023-09-07T09:18:21;5.88;;;3.85;;
42036;SDS011;30340;52.004;5.908;2023-09-07T09:20:46;6.80;;;4.28;;
42036;SDS011;30340;52.004;5.908;2023-09-07T09:23:13;5.82;;;4.00;;
42036;SDS011;30340;52.004;5.908;2023-09-07T09:25:40;4.95;;;3.85;;
42036;SDS011;30340;52.004;5.908;2023-09-07T09:28:08;6.80;;;4.50;;
42036;SDS011;30340;52.004;5.908;2023-09-07T09:30:34;5.78;;;4.20;;
42036;SDS011;30340;52.004;5.908;2023-09-07T09:33:00;5.78;;;4.07;;
42036;SDS011;30340;52.004;5.908;2023-09-07T09:35:28;5.50;;;3.75;;
42036;SDS011;30340;52.004;5.908;2023-09-07T09:37:54;5.70;;;3.58;;
42036;SDS011;30340;52.004;5.908;2023-09-07T09:40:20;5.35;;;4.10;;
42036;SDS011;30340;52.004;5.908;2023-09-07T09:42:46;6.32;;;4.28;;
42036;SDS011;30340;52.004;5.908;2023-09-07T09:45:14;5.32;;;4.82;;
42036;SDS011;30340;52.004;5.908;2023-09-07T09:47:40;7.43;;;4.20;;
42036;SDS011;30340;52.004;5.908;2023-09-07T09:50:08;5.43;;;4.10;;
42036;SDS011;30340;52.004;5.908;2023-09-07T09:52:35;5.03;;;4.20;;
42036;SDS011;30340;52.004;5.908;2023-09-07T09:55:05;4.72;;;3.78;;
42036;SDS011;30340;52.004;5.908;2023-09-07T10:00:02;3.47;;;3.17;;
42036;SDS011;30340;52.004;5.908;2023-09-07T10:02:58;6.00;;;3.70;;
42036;SDS011;30340;52.004;5.908;2023-09-07T10:05:27;5.97;;;4.40;;
42036;SDS011;30340;52.004;5.908;2023-09-07T10:07:59;4.72;;;3.95;;
42036;SDS011;30340;52.004;5.908;2023-09-07T10:10:31;7.45;;;3.35;;
42036;SDS011;30340;52.004;5.908;2023-09-07T10:13:00;6.68;;;3.75;;
42036;SDS011;30340;52.004;5.908;2023-09-07T10:15:26;5.15;;;3.60;;
42036;SDS011;30340;52.004;5.908;2023-09-07T10:18:12;4.50;;;3.70;;
42036;SDS011;30340;52.004;5.908;2023-09-07T10:20:55;5.35;;;3.40;;
42036;SDS011;30340;52.004;5.908;2023-09-07T10:23:36;4.82;;;3.80;;
42036;SDS011;30340;52.004;5.908;2023-09-07T10:26:03;4.90;;;3.50;;
42036;SDS011;30340;52.004;5.908;2023-09-07T10:28:30;5.03;;;3.55;;
42036;SDS011;30340;52.004;5.908;2023-09-07T10:31:03;4.97;;;3.28;;
42036;SDS011;30340;52.004;5.908;2023-09-07T10:33:32;4.15;;;3.13;;
42036;SDS011;30340;52.004;5.908;2023-09-07T10:35:58;4.45;;;3.45;;
42036;SDS011;30340;52.004;5.908;2023-09-07T10:38:24;4.03;;;3.00;;
42036;SDS011;30340;52.004;5.908;2023-09-07T10:40:57;4.53;;;2.97;;
42036;SDS011;30340;52.004;5.908;2023-09-07T10:43:30;3.55;;;2.97;;
42036;SDS011;30340;52.004;5.908;2023-09-07T10:45:58;4.93;;;3.50;;
42036;SDS011;30340;52.004;5.908;2023-09-07T10:48:25;4.25;;;2.80;;
42036;SDS011;30340;52.004;5.908;2023-09-07T10:50:53;4.95;;;2.97;;
42036;SDS011;30340;52.004;5.908;2023-09-07T10:53:29;3.67;;;2.92;;
42036;SDS011;30340;52.004;5.908;2023-09-07T10:55:59;5.03;;;3.35;;
42036;SDS011;30340;52.004;5.908;2023-09-07T10:58:32;4.78;;;3.03;;
42036;SDS011;30340;52.004;5.908;2023-09-07T11:00:58;4.00;;;3.30;;
42036;SDS011;30340;52.004;5.908;2023-09-07T11:03:25;3.50;;;2.78;;
42036;SDS011;30340;52.004;5.908;2023-09-07T11:05:55;4.68;;;3.40;;
42036;SDS011;30340;52.004;5.908;2023-09-07T11:08:24;3.75;;;3.28;;
42036;SDS011;30340;52.004;5.908;2023-09-07T11:10:50;7.88;;;3.17;;
42036;SDS011;30340;52.004;5.908;2023-09-07T11:13:19;4.35;;;3.05;;
42036;SDS011;30340;52.004;5.908;2023-09-07T11:15:45;5.78;;;3.50;;
42036;SDS011;30340;52.004;5.908;2023-09-07T11:18:10;3.45;;;2.97;;
42036;SDS011;30340;52.004;5.908;2023-09-07T11:20:36;4.53;;;2.90;;
42036;SDS011;30340;52.004;5.908;2023-09-07T11:23:04;4.40;;;2.75;;
42036;SDS011;30340;52.004;5.908;2023-09-07T11:25:37;5.97;;;3.03;;
42036;SDS011;30340;52.004;5.908;2023-09-07T11:28:06;4.50;;;2.80;;
42036;SDS011;30340;52.004;5.908;2023-09-07T11:30:33;4.22;;;3.03;;
42036;SDS011;30340;52.004;5.908;2023-09-07T11:33:03;2.90;;;2.60;;
42036;SDS011;30340;52.004;5.908;2023-09-07T11:35:30;3.35;;;3.05;;
42036;SDS011;30340;52.004;5.908;2023-09-07T11:37:56;5.72;;;3.08;;
42036;SDS011;30340;52.004;5.908;2023-09-07T11:40:24;4.60;;;3.30;;
42036;SDS011;30340;52.004;5.908;2023-09-07T11:42:49;4.20;;;2.97;;
42036;SDS011;30340;52.004;5.908;2023-09-07T11:45:15;4.38;;;2.80;;
42036;SDS011;30340;52.004;5.908;2023-09-07T11:47:42;3.70;;;2.65;;
42036;SDS011;30340;52.004;5.908;2023-09-07T11:50:08;3.22;;;2.50;;
42036;SDS011;30340;52.004;5.908;2023-09-07T11:52:34;4.13;;;3.00;;
42036;SDS011;30340;52.004;5.908;2023-09-07T11:54:59;3.33;;;3.00;;
42036;SDS011;30340;52.004;5.908;2023-09-07T11:57:27;5.95;;;3.35;;
42036;SDS011;30340;52.004;5.908;2023-09-07T11:59:52;5.60;;;3.08;;
42036;SDS011;30340;52.004;5.908;2023-09-07T12:02:18;4.97;;;3.30;;
42036;SDS011;30340;52.004;5.908;2023-09-07T12:04:46;4.55;;;2.80;;
42036;SDS011;30340;52.004;5.908;2023-09-07T12:07:12;3.45;;;2.88;;
42036;SDS011;30340;52.004;5.908;2023-09-07T12:09:38;4.38;;;2.90;;
42036;SDS011;30340;52.004;5.908;2023-09-07T12:12:03;2.95;;;2.65;;
42036;SDS011;30340;52.004;5.908;2023-09-07T12:14:29;3.17;;;2.60;;
42036;SDS011;30340;52.004;5.908;2023-09-07T12:16:56;5.47;;;2.85;;
42036;SDS011;30340;52.004;5.908;2023-09-07T12:19:22;2.95;;;2.65;;
42036;SDS011;30340;52.004;5.908;2023-09-07T12:21:47;4.55;;;2.80;;
42036;SDS011;30340;52.004;5.908;2023-09-07T12:24:13;3.05;;;2.53;;
42036;SDS011;30340;52.004;5.908;2023-09-07T12:26:38;4.25;;;3.00;;
42036;SDS011;30340;52.004;5.908;2023-09-07T12:29:04;3.38;;;2.78;;
42036;SDS011;30340;52.004;5.908;2023-09-07T12:31:31;3.80;;;2.95;;
42036;SDS011;30340;52.004;5.908;2023-09-07T12:33:57;4.03;;;2.70;;
42036;SDS011;30340;52.004;5.908;2023-09-07T12:36:22;3.50;;;2.97;;
42036;SDS011;30340;52.004;5.908;2023-09-07T12:38:48;4.50;;;2.83;;
42036;SDS011;30340;52.004;5.908;2023-09-07T12:41:14;3.92;;;3.10;;
42036;SDS011;30340;52.004;5.908;2023-09-07T12:43:40;3.17;;;2.50;;
42036;SDS011;30340;52.004;5.908;2023-09-07T12:46:07;3.70;;;2.80;;
42036;SDS011;30340;52.004;5.908;2023-09-07T12:48:33;3.33;;;2.90;;
42036;SDS011;30340;52.004;5.908;2023-09-07T12:50:59;3.28;;;2.80;;
42036;SDS011;30340;52.004;5.908;2023-09-07T12:53:25;4.38;;;2.95;;
42036;SDS011;30340;52.004;5.908;2023-09-07T12:55:54;5.25;;;2.97;;
42036;SDS011;30340;52.004;5.908;2023-09-07T12:58:20;3.05;;;2.75;;
42036;SDS011;30340;52.004;5.908;2023-09-07T13:00:45;3.92;;;3.15;;
42036;SDS011;30340;52.004;5.908;2023-09-07T13:03:13;4.13;;;2.90;;
42036;SDS011;30340;52.004;5.908;2023-09-07T13:05:39;3.80;;;2.95;;
42036;SDS011;30340;52.004;5.908;2023-09-07T13:08:05;3.30;;;2.83;;
42036;SDS011;30340;52.004;5.908;2023-09-07T13:10:31;3.30;;;3.00;;
42036;SDS011;30340;52.004;5.908;2023-09-07T13:12:57;3.65;;;2.80;;
42036;SDS011;30340;52.004;5.908;2023-09-07T13:15:23;3.70;;;3.00;;
42036;SDS011;30340;52.004;5.908;2023-09-07T13:17:49;3.20;;;2.90;;
42036;SDS011;30340;52.004;5.908;2023-09-07T13:20:14;3.58;;;2.80;;
42036;SDS011;30340;52.004;5.908;2023-09-07T13:22:41;4.35;;;3.20;;
42036;SDS011;30340;52.004;5.908;2023-09-07T13:25:07;4.45;;;3.20;;
42036;SDS011;30340;52.004;5.908;2023-09-07T13:27:33;4.20;;;2.85;;
42036;SDS011;30340;52.004;5.908;2023-09-07T13:29:58;3.67;;;3.05;;
42036;SDS011;30340;52.004;5.908;2023-09-07T13:32:26;4.93;;;3.15;;
42036;SDS011;30340;52.004;5.908;2023-09-07T13:34:51;3.97;;;3.05;;
42036;SDS011;30340;52.004;5.908;2023-09-07T13:37:17;4.15;;;3.20;;
42036;SDS011;30340;52.004;5.908;2023-09-07T13:39:42;4.05;;;3.22;;
42036;SDS011;30340;52.004;5.908;2023-09-07T13:42:08;3.80;;;2.80;;
42036;SDS011;30340;52.004;5.908;2023-09-07T13:44:34;3.22;;;2.75;;
42036;SDS011;30340;52.004;5.908;2023-09-07T13:46:59;4.25;;;3.50;;
42036;SDS011;30340;52.004;5.908;2023-09-07T13:49:25;4.35;;;3.03;;
42036;SDS011;30340;52.004;5.908;2023-09-07T13:51:50;5.22;;;3.08;;
42036;SDS011;30340;52.004;5.908;2023-09-07T13:54:16;5.03;;;3.45;;
42036;SDS011;30340;52.004;5.908;2023-09-07T13:56:42;3.67;;;2.97;;
42036;SDS011;30340;52.004;5.908;2023-09-07T13:59:09;4.20;;;3.10;;
42036;SDS011;30340;52.004;5.908;2023-09-07T14:01:35;5.20;;;3.30;;
42036;SDS011;30340;52.004;5.908;2023-09-07T14:04:02;5.53;;;3.08;;
42036;SDS011;30340;52.004;5.908;2023-09-07T14:06:28;3.47;;;3.17;;
42036;SDS011;30340;52.004;5.908;2023-09-07T14:08:54;5.20;;;3.50;;
42036;SDS011;30340;52.004;5.908;2023-09-07T14:11:20;3.45;;;3.13;;
42036;SDS011;30340;52.004;5.908;2023-09-07T14:13:49;4.10;;;2.78;;
42036;SDS011;30340;52.004;5.908;2023-09-07T14:16:19;4.45;;;3.22;;
42036;SDS011;30340;52.004;5.908;2023-09-07T14:18:45;4.18;;;3.10;;
42036;SDS011;30340;52.004;5.908;2023-09-07T14:21:13;5.28;;;3.50;;
42036;SDS011;30340;52.004;5.908;2023-09-07T14:23:39;3.90;;;3.40;;
42036;SDS011;30340;52.004;5.908;2023-09-07T14:26:05;5.00;;;3.20;;
42036;SDS011;30340;52.004;5.908;2023-09-07T14:28:31;4.90;;;3.42;;
42036;SDS011;30340;52.004;5.908;2023-09-07T14:30:56;5.78;;;3.42;;
42036;SDS011;30340;52.004;5.908;2023-09-07T14:33:24;6.82;;;3.30;;
42036;SDS011;30340;52.004;5.908;2023-09-07T14:35:50;5.40;;;3.40;;
42036;SDS011;30340;52.004;5.908;2023-09-07T14:38:19;5.15;;;3.50;;
42036;SDS011;30340;52.004;5.908;2023-09-07T14:40:45;3.78;;;3.33;;
42036;SDS011;30340;52.004;5.908;2023-09-07T14:43:10;3.90;;;3.20;;
42036;SDS011;30340;52.004;5.908;2023-09-07T14:45:36;4.55;;;3.13;;
42036;SDS011;30340;52.004;5.908;2023-09-07T14:48:02;4.72;;;3.40;;